createdAt,value
2018-03-06T00:00:08.432Z,76.80
2018-03-06T00:02:36.761Z,76.96
2018-03-06T00:05:06.187Z,76.78
2018-03-06T00:07:34.480Z,77.03
2018-03-06T00:10:06.611Z,77.15
2018-03-06T00:12:34.895Z,76.90
2018-03-06T00:15:07.065Z,76.69
2018-03-06T00:17:35.360Z,77.14
2018-03-06T00:20:06.715Z,77.51
2018-03-06T00:22:34.988Z,77.41
2018-03-06T00:25:06.675Z,77.27
2018-03-06T00:27:34.976Z,77.38
2018-03-06T00:30:07.180Z,77.28
2018-03-06T00:32:35.466Z,77.56
2018-03-06T00:35:06.754Z,77.44
2018-03-06T00:37:35.237Z,77.51
2018-03-06T00:40:07.282Z,77.86
2018-03-06T00:42:35.828Z,77.23
2018-03-06T00:45:08.083Z,78.25
2018-03-06T00:47:36.361Z,78.15
2018-03-06T00:50:06.101Z,77.90
2018-03-06T00:52:34.425Z,78.16
2018-03-06T00:55:05.851Z,78.23
2018-03-06T00:57:34.368Z,78.09
2018-03-06T01:00:06.001Z,78.42
2018-03-06T01:02:34.464Z,77.73
2018-03-06T01:05:06.492Z,77.94
2018-03-06T01:07:34.895Z,77.90
2018-03-06T01:10:06.554Z,77.98
2018-03-06T01:12:34.882Z,77.98
2018-03-06T01:15:06.924Z,77.75
2018-03-06T01:17:35.397Z,77.76
2018-03-06T01:20:06.608Z,77.40
2018-03-06T01:22:34.924Z,77.09
2018-03-06T01:25:05.813Z,77.21
2018-03-06T01:27:34.145Z,77.28
2018-03-06T01:30:09.143Z,77.43
2018-03-06T01:32:37.569Z,77.59
2018-03-06T01:35:06.181Z,77.85
2018-03-06T01:37:34.497Z,77.04
2018-03-06T01:40:06.433Z,77.24
2018-03-06T01:42:34.767Z,77.56
2018-03-06T01:45:07.076Z,78.04
2018-03-06T01:47:35.414Z,77.52
2018-03-06T01:50:07.456Z,77.24
2018-03-06T01:52:35.780Z,76.76
2018-03-06T01:55:07.091Z,76.51
2018-03-06T01:57:35.429Z,76.52
2018-03-06T02:00:07.321Z,76.74
2018-03-06T02:02:35.873Z,76.98
2018-03-06T02:05:09.040Z,76.83
2018-03-06T02:07:37.345Z,76.80
2018-03-06T02:10:05.903Z,76.97
2018-03-06T02:12:34.181Z,77.27
2018-03-06T02:15:09.305Z,77.34
2018-03-06T02:17:37.590Z,77.77
2018-03-06T02:20:05.904Z,77.81
2018-03-06T02:22:34.365Z,78.16
2018-03-06T02:25:09.405Z,78.20
2018-03-06T02:27:37.713Z,78.10
2018-03-06T02:30:06.011Z,78.06
2018-03-06T02:32:34.329Z,78.07
2018-03-06T02:35:10.131Z,77.49
2018-03-06T02:37:38.448Z,77.00
2018-03-06T02:40:06.956Z,76.92
2018-03-06T02:42:35.425Z,77.12
2018-03-06T02:45:06.935Z,77.02
2018-03-06T02:47:35.254Z,77.05
2018-03-06T02:50:06.909Z,77.19
2018-03-06T02:52:35.215Z,77.42
2018-03-06T02:55:07.018Z,77.48
2018-03-06T02:57:35.319Z,78.08
2018-03-06T03:00:07.461Z,77.68
2018-03-06T03:02:35.767Z,77.69
2018-03-06T03:05:05.912Z,77.64
2018-03-06T03:07:34.724Z,77.65
2018-03-06T03:10:06.144Z,77.54
2018-03-06T03:12:34.671Z,77.10
2018-03-06T03:15:06.609Z,77.08
2018-03-06T03:17:34.926Z,77.60
2018-03-06T03:20:06.773Z,78.42
2018-03-06T03:22:35.081Z,78.26
2018-03-06T03:25:08.323Z,77.42
2018-03-06T03:27:36.629Z,77.46
2018-03-06T03:30:07.824Z,77.43
2018-03-06T03:32:36.137Z,77.22
2018-03-06T03:35:08.064Z,77.39
2018-03-06T03:37:37.133Z,77.11
2018-03-06T03:40:06.176Z,76.75
2018-03-06T03:42:34.481Z,76.77
2018-03-06T03:45:06.633Z,76.74
2018-03-06T03:47:34.925Z,76.85
2018-03-06T03:50:06.797Z,76.78
2018-03-06T03:52:35.663Z,76.87
2018-03-06T03:55:07.741Z,77.05
2018-03-06T03:57:36.052Z,77.02
2018-03-06T04:00:07.440Z,76.91
2018-03-06T04:02:36.274Z,76.57
2018-03-06T04:05:06.113Z,76.82
2018-03-06T04:07:34.413Z,76.64
2018-03-06T04:10:09.525Z,76.93
2018-03-06T04:12:37.997Z,76.94
2018-03-06T04:15:06.310Z,76.03
2018-03-06T04:17:34.596Z,77.01
2018-03-06T04:20:06.139Z,77.09
2018-03-06T04:22:34.440Z,76.91
2018-03-06T04:25:09.357Z,76.49
2018-03-06T04:27:38.345Z,76.67
2018-03-06T04:30:06.638Z,76.71
2018-03-06T04:32:35.097Z,76.28
2018-03-06T04:35:07.889Z,76.38
2018-03-06T04:37:36.185Z,76.41
2018-03-06T04:40:06.222Z,76.03
2018-03-06T04:42:34.598Z,76.46
2018-03-06T04:45:06.033Z,76.53
2018-03-06T04:47:34.398Z,76.78
2018-03-06T04:50:06.221Z,77.06
2018-03-06T04:52:34.521Z,76.67
2018-03-06T04:55:06.201Z,76.42
2018-03-06T04:57:34.531Z,76.57
2018-03-06T05:00:06.264Z,76.62
2018-03-06T05:02:35.390Z,76.00
2018-03-06T05:05:06.694Z,76.14
2018-03-06T05:07:34.999Z,76.68
2018-03-06T05:10:06.193Z,76.40
2018-03-06T05:12:34.497Z,76.22
2018-03-06T05:15:07.740Z,76.09
2018-03-06T05:17:36.079Z,76.34
2018-03-06T05:20:06.106Z,76.37
2018-03-06T05:22:34.650Z,77.05
2018-03-06T05:25:06.138Z,76.96
2018-03-06T05:27:34.943Z,76.32
2018-03-06T05:30:06.077Z,75.95
2018-03-06T05:32:34.407Z,76.09
2018-03-06T05:35:06.062Z,76.86
2018-03-06T05:37:34.394Z,77.17
2018-03-06T05:40:06.199Z,76.22
2018-03-06T05:42:34.514Z,76.97
2018-03-06T05:45:09.720Z,77.23
2018-03-06T05:47:38.029Z,77.09
2018-03-06T05:50:06.346Z,77.55
2018-03-06T05:52:34.929Z,77.52
2018-03-06T05:55:06.762Z,77.09
2018-03-06T05:57:35.073Z,77.18
2018-03-06T06:00:07.234Z,76.86
2018-03-06T06:02:35.522Z,76.87
2018-03-06T06:05:07.546Z,77.24
2018-03-06T06:07:36.718Z,77.09
2018-03-06T06:10:06.235Z,77.35
2018-03-06T06:12:34.532Z,76.75
2018-03-06T06:15:08.701Z,76.73
2018-03-06T06:17:37.843Z,76.33
2018-03-06T06:20:06.136Z,76.63
2018-03-06T06:22:34.428Z,76.68
2018-03-06T06:25:05.916Z,76.42
2018-03-06T06:27:34.357Z,75.81
2018-03-06T06:30:08.477Z,76.01
2018-03-06T06:32:36.725Z,76.14
2018-03-06T06:35:06.852Z,75.95
2018-03-06T06:37:35.189Z,75.43
2018-03-06T06:40:06.134Z,74.74
2018-03-06T06:42:34.541Z,74.79
2018-03-06T06:45:09.708Z,74.81
2018-03-06T06:47:38.021Z,74.06
2018-03-06T06:50:07.125Z,74.10
2018-03-06T06:52:35.478Z,73.99
2018-03-06T06:55:07.134Z,74.47
2018-03-06T06:57:35.463Z,74.63
2018-03-06T07:00:06.145Z,74.52
2018-03-06T07:02:34.422Z,74.05
2018-03-06T07:05:07.331Z,73.34
2018-03-06T07:07:35.615Z,73.10
2018-03-06T07:10:07.371Z,73.20
2018-03-06T07:12:35.865Z,73.22
2018-03-06T07:15:07.688Z,73.04
2018-03-06T07:17:35.987Z,72.32
2018-03-06T07:20:07.587Z,73.05
2018-03-06T07:22:36.130Z,72.08
2018-03-06T07:25:06.891Z,72.06
2018-03-06T07:27:35.200Z,71.51
2018-03-06T07:30:06.529Z,72.18
2018-03-06T07:32:34.832Z,71.81
2018-03-06T07:35:10.246Z,71.04
2018-03-06T07:37:38.514Z,71.69
2018-03-06T07:40:06.817Z,70.60
2018-03-06T07:42:35.124Z,70.17
2018-03-06T07:45:06.357Z,70.39
2018-03-06T07:47:34.889Z,70.29
2018-03-06T07:50:06.146Z,71.06
2018-03-06T07:52:34.424Z,70.63
2018-03-06T07:55:05.872Z,69.83
2018-03-06T07:57:34.149Z,69.75
2018-03-06T08:00:09.158Z,69.64
2018-03-06T08:02:37.450Z,69.61
2018-03-06T08:05:07.151Z,69.25
2018-03-06T08:07:35.446Z,68.38
2018-03-06T08:10:07.598Z,68.18
2018-03-06T08:12:36.436Z,68.23
2018-03-06T08:15:06.225Z,67.66
2018-03-06T08:17:34.540Z,67.47
2018-03-06T08:20:09.670Z,67.70
2018-03-06T08:22:37.983Z,67.70
2018-03-06T08:25:06.267Z,66.23
2018-03-06T08:27:34.755Z,66.52
2018-03-06T08:30:06.929Z,67.56
2018-03-06T08:32:35.220Z,67.07
2018-03-06T08:35:06.942Z,67.55
2018-03-06T08:37:35.305Z,67.22
2018-03-06T08:40:06.235Z,67.64
2018-03-06T08:42:34.523Z,66.76
2018-03-06T08:45:06.103Z,66.53
2018-03-06T08:47:34.376Z,65.62
2018-03-06T08:50:09.557Z,65.84
2018-03-06T08:52:38.214Z,64.76
2018-03-06T08:55:06.637Z,64.33
2018-03-06T08:57:34.930Z,64.76
2018-03-06T09:00:07.124Z,65.50
2018-03-06T09:02:36.034Z,64.38
2018-03-06T09:05:07.851Z,63.17
2018-03-06T09:07:36.140Z,64.09
2018-03-06T09:10:08.296Z,65.11
2018-03-06T09:12:36.569Z,63.41
2018-03-06T09:15:06.686Z,64.27
2018-03-06T09:17:34.942Z,64.80
2018-03-06T09:20:07.110Z,64.03
2018-03-06T09:22:35.629Z,61.70
2018-03-06T09:25:06.444Z,59.95
2018-03-06T09:27:35.035Z,58.77
2018-03-06T09:30:06.978Z,58.58
2018-03-06T09:32:35.448Z,59.15
2018-03-06T09:35:07.154Z,58.19
2018-03-06T09:37:35.480Z,56.49
2018-03-06T09:40:06.314Z,55.69
2018-03-06T09:42:34.615Z,57.49
2018-03-06T09:45:09.710Z,58.01
2018-03-06T09:47:37.984Z,55.06
2018-03-06T09:50:06.385Z,54.55
2018-03-06T09:52:34.751Z,53.67
2018-03-06T09:55:09.917Z,53.29
2018-03-06T09:57:38.395Z,54.88
2018-03-06T10:00:06.687Z,53.98
2018-03-06T10:02:35.312Z,51.98
2018-03-06T10:05:07.225Z,49.81
2018-03-06T10:07:35.613Z,49.19
2018-03-06T10:10:06.331Z,49.43
2018-03-06T10:12:34.625Z,53.70
2018-03-06T10:15:07.550Z,55.15
2018-03-06T10:17:35.842Z,52.24
2018-03-06T10:20:07.368Z,49.50
2018-03-06T10:22:35.672Z,46.43
2018-03-06T10:25:06.987Z,47.22
2018-03-06T10:27:35.294Z,46.98
2018-03-06T10:30:06.508Z,46.24
2018-03-06T10:32:34.825Z,46.62
2018-03-06T10:35:06.289Z,46.09
2018-03-06T10:37:34.594Z,47.29
2018-03-06T10:40:06.816Z,45.10
2018-03-06T10:42:36.029Z,43.50
2018-03-06T10:45:07.823Z,43.58
2018-03-06T10:47:36.124Z,42.87
2018-03-06T10:50:08.380Z,46.71
2018-03-06T10:52:36.694Z,45.11
2018-03-06T10:55:06.837Z,43.65
2018-03-06T10:57:35.399Z,43.65
2018-03-06T11:00:07.203Z,47.02
2018-03-06T11:02:41.178Z,43.27
2018-03-06T11:05:09.836Z,42.89
2018-03-06T11:07:38.293Z,42.50
2018-03-06T11:10:06.616Z,43.04
2018-03-06T11:12:34.982Z,45.44
2018-03-06T11:15:06.565Z,41.31
2018-03-06T11:17:34.842Z,44.61
2018-03-06T11:20:07.201Z,43.38
2018-03-06T11:22:35.478Z,42.60
2018-03-06T11:25:07.825Z,44.41
2018-03-06T11:27:36.233Z,45.95
2018-03-06T11:30:07.462Z,44.18
2018-03-06T11:32:36.352Z,44.25
2018-03-06T11:35:08.040Z,43.97
2018-03-06T11:37:36.317Z,43.00
2018-03-06T11:40:07.853Z,43.85
2018-03-06T11:42:36.400Z,42.51
2018-03-06T11:45:06.395Z,41.90
2018-03-06T11:47:34.694Z,42.83
2018-03-06T11:50:09.801Z,41.36
2018-03-06T11:52:39.572Z,46.48
2018-03-06T11:55:07.845Z,44.62
2018-03-06T11:57:36.150Z,43.41
2018-03-06T12:00:07.569Z,45.86
2018-03-06T12:02:35.998Z,45.58
2018-03-06T12:05:07.541Z,44.77
2018-03-06T12:07:36.226Z,45.21
2018-03-06T12:10:07.619Z,44.11
2018-03-06T12:12:36.337Z,42.67
2018-03-06T12:15:08.372Z,42.83
2018-03-06T12:17:36.661Z,43.45
2018-03-06T12:20:07.881Z,42.71
2018-03-06T12:22:36.627Z,43.53
2018-03-06T12:25:06.485Z,42.65
2018-03-06T12:27:34.769Z,45.50
2018-03-06T12:30:09.815Z,46.59
2018-03-06T12:32:38.086Z,43.40
2018-03-06T12:35:07.489Z,45.37
2018-03-06T12:37:36.432Z,45.27
2018-03-06T12:40:08.122Z,42.56
2018-03-06T12:42:37.712Z,41.30
2018-03-06T12:45:06.860Z,41.40
2018-03-06T12:47:35.455Z,41.17
2018-03-06T12:50:07.477Z,41.49
2018-03-06T12:52:35.760Z,44.35
2018-03-06T12:55:07.894Z,46.33
2018-03-06T12:57:36.301Z,48.05
2018-03-06T13:00:08.670Z,45.50
2018-03-06T13:02:36.953Z,44.13
2018-03-06T13:05:06.523Z,43.47
2018-03-06T13:07:34.796Z,44.50
2018-03-06T13:10:09.843Z,46.42
2018-03-06T13:12:38.157Z,47.21
2018-03-06T13:15:07.484Z,46.61
2018-03-06T13:17:35.797Z,45.30
2018-03-06T13:20:07.916Z,44.98
2018-03-06T13:22:36.224Z,47.05
2018-03-06T13:25:05.824Z,47.11
2018-03-06T13:27:34.526Z,46.45
2018-03-06T13:30:06.226Z,46.43
2018-03-06T13:32:34.550Z,47.40
2018-03-06T13:35:06.673Z,47.66
2018-03-06T13:37:34.973Z,47.74
2018-03-06T13:40:06.301Z,48.23
2018-03-06T13:42:34.941Z,47.58
2018-03-06T13:45:05.904Z,48.83
2018-03-06T13:47:34.206Z,48.74
2018-03-06T13:50:05.651Z,47.72
2018-03-06T13:52:34.003Z,47.85
2018-03-06T13:55:05.841Z,50.01
2018-03-06T13:57:34.162Z,49.97
2018-03-06T14:00:06.044Z,49.77
2018-03-06T14:02:35.884Z,49.70
2018-03-06T14:05:07.236Z,49.18
2018-03-06T14:07:35.677Z,50.42
2018-03-06T14:10:06.341Z,49.38
2018-03-06T14:12:34.638Z,49.25
2018-03-06T14:15:06.488Z,48.69
2018-03-06T14:17:34.772Z,48.87
2018-03-06T14:20:05.602Z,48.58
2018-03-06T14:22:34.078Z,49.62
2018-03-06T14:25:06.272Z,50.28
2018-03-06T14:27:34.563Z,49.65
2018-03-06T14:30:06.470Z,51.01
2018-03-06T14:32:34.817Z,51.29
2018-03-06T14:35:06.255Z,50.89
2018-03-06T14:37:34.548Z,50.66
2018-03-06T14:40:06.029Z,49.99
2018-03-06T14:42:34.554Z,51.85
2018-03-06T14:45:06.240Z,52.22
2018-03-06T14:47:34.540Z,51.90
2018-03-06T14:50:05.812Z,51.23
2018-03-06T14:52:35.950Z,50.05
2018-03-06T14:55:07.337Z,49.70
2018-03-06T14:57:35.697Z,49.69
2018-03-06T15:00:09.049Z,50.21
2018-03-06T15:02:37.749Z,50.75
2018-03-06T15:05:06.332Z,50.49
2018-03-06T15:07:34.603Z,49.95
2018-03-06T15:10:05.952Z,51.31
2018-03-06T15:12:34.256Z,51.47
2018-03-06T15:15:05.722Z,51.99
2018-03-06T15:17:34.031Z,51.24
2018-03-06T15:20:09.211Z,51.40
2018-03-06T15:22:37.586Z,51.63
2018-03-06T15:25:05.908Z,51.23
2018-03-06T15:27:34.219Z,50.91
2018-03-06T15:30:06.380Z,50.62
2018-03-06T15:32:34.661Z,51.60
2018-03-06T15:35:07.327Z,52.24
2018-03-06T15:37:39.773Z,50.69
2018-03-06T15:40:08.055Z,51.00
2018-03-06T15:42:36.722Z,51.39
2018-03-06T15:45:06.541Z,51.06
2018-03-06T15:47:34.835Z,51.16
2018-03-06T15:50:06.534Z,52.19
2018-03-06T15:52:34.833Z,52.44
2018-03-06T15:55:06.650Z,51.26
2018-03-06T15:57:34.960Z,52.57
2018-03-06T16:00:06.980Z,52.52
2018-03-06T16:02:35.245Z,51.59
2018-03-06T16:05:07.429Z,53.24
2018-03-06T16:07:35.706Z,52.76
2018-03-06T16:10:07.438Z,51.97
2018-03-06T16:12:36.261Z,52.43
2018-03-06T16:15:07.602Z,52.42
2018-03-06T16:17:35.942Z,53.63
2018-03-06T16:20:07.520Z,53.12
2018-03-06T16:22:35.982Z,52.89
2018-03-06T16:25:07.685Z,52.68
2018-03-06T16:27:36.015Z,53.33
2018-03-06T16:30:07.641Z,53.83
2018-03-06T16:32:35.941Z,55.15
2018-03-06T16:35:07.651Z,55.35
2018-03-06T16:37:35.894Z,56.17
2018-03-06T16:40:07.166Z,56.42
2018-03-06T16:42:35.461Z,57.29
2018-03-06T16:45:05.707Z,58.73
2018-03-06T16:47:33.982Z,56.53
2018-03-06T16:50:05.322Z,57.28
2018-03-06T16:52:34.107Z,58.29
2018-03-06T16:55:09.307Z,58.13
2018-03-06T16:57:38.333Z,58.38
2018-03-06T17:00:07.110Z,58.40
2018-03-06T17:02:35.603Z,58.97
2018-03-06T17:05:07.290Z,59.83
2018-03-06T17:07:35.601Z,59.18
2018-03-06T17:10:07.208Z,62.45
2018-03-06T17:12:37.089Z,60.84
2018-03-06T17:15:06.365Z,59.57
2018-03-06T17:17:34.692Z,59.73
2018-03-06T17:20:06.705Z,60.98
2018-03-06T17:22:35.024Z,62.41
2018-03-06T17:25:07.042Z,63.34
2018-03-06T17:27:35.342Z,63.80
2018-03-06T17:30:07.478Z,64.65
2018-03-06T17:32:36.011Z,65.45
2018-03-06T17:35:07.793Z,65.90
2018-03-06T17:37:36.359Z,65.44
2018-03-06T17:40:07.574Z,65.13
2018-03-06T17:42:35.861Z,65.44
2018-03-06T17:45:05.949Z,65.77
2018-03-06T17:47:34.242Z,66.24
2018-03-06T17:50:09.325Z,66.58
2018-03-06T17:52:37.603Z,66.89
2018-03-06T17:55:05.898Z,67.09
2018-03-06T17:57:34.217Z,66.98
2018-03-06T18:00:09.547Z,66.36
2018-03-06T18:02:37.808Z,66.29
2018-03-06T18:05:06.109Z,66.04
2018-03-06T18:07:34.385Z,66.24
2018-03-06T18:10:08.342Z,66.84
2018-03-06T18:12:36.630Z,67.87
2018-03-06T18:15:06.701Z,68.28
2018-03-06T18:17:35.550Z,67.78
2018-03-06T18:20:07.251Z,67.45
2018-03-06T18:22:35.531Z,67.01
2018-03-06T18:25:07.300Z,67.19
2018-03-06T18:27:39.122Z,67.51
2018-03-06T18:30:07.915Z,67.85
2018-03-06T18:32:36.341Z,67.69
2018-03-06T18:35:07.600Z,67.94
2018-03-06T18:37:35.903Z,67.99
2018-03-06T18:40:09.113Z,68.58
2018-03-06T18:42:37.434Z,68.08
2018-03-06T18:45:06.485Z,68.17
2018-03-06T18:47:34.782Z,68.33
2018-03-06T18:50:06.605Z,68.14
2018-03-06T18:52:34.908Z,68.20
2018-03-06T18:55:05.840Z,67.83
2018-03-06T18:57:34.172Z,67.77
2018-03-06T19:00:36.944Z,67.96
2018-03-06T19:03:16.919Z,69.16
2018-03-06T19:05:57.740Z,69.00
2018-03-06T19:08:26.058Z,68.67
2018-03-06T19:10:54.403Z,68.58
2018-03-06T19:13:22.708Z,68.64
2018-03-06T19:15:51.185Z,68.26
2018-03-06T19:18:19.529Z,68.24
2018-03-06T19:20:47.891Z,68.45
2018-03-06T19:23:16.224Z,68.52
2018-03-06T19:25:44.840Z,68.69
2018-03-06T19:28:13.677Z,69.16
2018-03-06T19:30:42.241Z,69.26
2018-03-06T19:33:10.551Z,69.34
2018-03-06T19:35:38.879Z,69.41
2018-03-06T19:38:07.166Z,69.52
2018-03-06T19:40:35.495Z,69.89
2018-03-06T19:43:03.767Z,69.73
2018-03-06T19:45:32.069Z,70.05
2018-03-06T19:48:00.371Z,70.36
2018-03-06T19:50:28.701Z,70.15
2018-03-06T19:52:57.001Z,70.25
2018-03-06T19:55:25.296Z,70.03
2018-03-06T19:57:53.656Z,69.99
2018-03-06T20:00:21.973Z,69.98
2018-03-06T20:02:50.274Z,69.66
2018-03-06T20:05:18.557Z,69.04
2018-03-06T20:07:46.931Z,68.96
2018-03-06T20:10:15.230Z,69.65
2018-03-06T20:12:43.509Z,69.84
2018-03-06T20:15:17.077Z,70.17
2018-03-06T20:17:45.406Z,69.87
2018-03-06T20:20:13.709Z,69.88
2018-03-06T20:22:42.034Z,70.43
2018-03-06T20:25:16.226Z,70.36
2018-03-06T20:27:44.469Z,70.41
2018-03-06T20:30:18.400Z,70.64
2018-03-06T20:32:52.319Z,70.62
2018-03-06T20:35:20.638Z,70.63
2018-03-06T20:37:48.959Z,70.30
2018-03-06T20:40:22.832Z,70.18
2018-03-06T20:42:51.145Z,70.16
2018-03-06T20:45:19.845Z,70.46
2018-03-06T20:47:48.141Z,70.63
2018-03-06T20:50:16.574Z,71.17
2018-03-06T20:52:50.435Z,71.40
2018-03-06T20:55:18.708Z,71.40
2018-03-06T20:57:47.167Z,71.45
2018-03-06T21:00:15.465Z,71.24
2018-03-06T21:02:43.750Z,71.16
2018-03-06T21:05:12.311Z,71.55
2018-03-06T21:07:40.813Z,72.20
2018-03-06T21:10:09.101Z,73.86
2018-03-06T21:12:37.573Z,74.61
2018-03-06T21:15:06.310Z,76.25
2018-03-06T21:17:34.599Z,76.54
2018-03-06T21:20:06.079Z,77.29
2018-03-06T21:22:34.357Z,78.72
2018-03-06T21:25:06.442Z,79.75
2018-03-06T21:27:34.687Z,80.81
2018-03-06T21:30:06.040Z,81.08
2018-03-06T21:32:34.319Z,81.24
2018-03-06T21:35:06.324Z,82.11
2018-03-06T21:37:34.597Z,81.59
2018-03-06T21:40:06.786Z,82.08
2018-03-06T21:42:35.066Z,82.73
2018-03-06T21:45:07.198Z,83.30
2018-03-06T21:47:35.491Z,83.04
2018-03-06T21:50:07.125Z,82.50
2018-03-06T21:52:35.421Z,82.92
2018-03-06T21:55:07.327Z,82.27
2018-03-06T21:57:36.243Z,82.32
2018-03-06T22:00:06.142Z,81.76
2018-03-06T22:02:34.438Z,82.31
2018-03-06T22:05:06.149Z,83.02
2018-03-06T22:07:34.454Z,83.78
2018-03-06T22:10:07.535Z,83.40
2018-03-06T22:12:35.832Z,83.64
2018-03-06T22:15:07.558Z,84.41
2018-03-06T22:17:35.845Z,85.35
2018-03-06T22:20:07.565Z,85.67
2018-03-06T22:22:35.899Z,85.68
2018-03-06T22:25:07.344Z,85.36
2018-03-06T22:27:35.638Z,84.78
2018-03-06T22:30:06.849Z,84.52
2018-03-06T22:32:35.138Z,85.04
2018-03-06T22:35:06.356Z,85.95
2018-03-06T22:37:34.643Z,86.36
2018-03-06T22:40:08.766Z,86.17
2018-03-06T22:42:37.080Z,85.61
2018-03-06T22:45:06.973Z,85.53
2018-03-06T22:47:35.248Z,86.06
2018-03-06T22:50:06.961Z,86.07
2018-03-06T22:52:35.237Z,85.63
2018-03-06T22:55:07.600Z,86.01
2018-03-06T22:57:36.044Z,86.28
2018-03-06T23:00:06.141Z,86.71
2018-03-06T23:02:34.414Z,86.43
2018-03-06T23:05:06.530Z,87.30
2018-03-06T23:07:34.804Z,87.75
2018-03-06T23:10:06.160Z,87.88
2018-03-06T23:12:34.399Z,87.33
2018-03-06T23:15:06.137Z,86.87
2018-03-06T23:17:34.410Z,86.07
2018-03-06T23:20:05.874Z,86.35
2018-03-06T23:22:34.153Z,86.76
2018-03-06T23:25:06.245Z,86.49
2018-03-06T23:27:34.518Z,86.99
2018-03-06T23:30:05.858Z,87.01
2018-03-06T23:32:34.132Z,87.14
2018-03-06T23:35:05.756Z,87.23
2018-03-06T23:37:34.022Z,86.59
2018-03-06T23:40:06.044Z,85.54
2018-03-06T23:42:34.346Z,85.78
2018-03-06T23:45:06.729Z,86.73
2018-03-06T23:47:35.032Z,86.57
2018-03-06T23:50:06.661Z,87.35
2018-03-06T23:52:34.949Z,86.16
2018-03-06T23:55:06.541Z,86.39
2018-03-06T23:57:34.869Z,86.64
